sensor_id;sensor_type;location;lat;lon;timestamp;P1;durP1;ratioP1;P2;durP2;ratioP2
18387;SDS011;9320;50.256;19.026;2022-12-07T00:01:17;24.00;;;13.40;;
18387;SDS011;9320;50.256;19.026;2022-12-07T00:03:47;22.50;;;13.27;;
18387;SDS011;9320;50.256;19.026;2022-12-07T00:06:16;20.13;;;12.70;;
18387;SDS011;9320;50.256;19.026;2022-12-07T00:08:45;22.63;;;12.80;;
18387;SDS011;9320;50.256;19.026;2022-12-07T00:11:14;22.87;;;12.67;;
18387;SDS011;9320;50.256;19.026;2022-12-07T00:13:45;21.63;;;12.73;;
18387;SDS011;9320;50.256;19.026;2022-12-07T00:16:14;21.47;;;12.53;;
18387;SDS011;9320;50.256;19.026;2022-12-07T00:18:44;22.20;;;12.93;;
18387;SDS011;9320;50.256;19.026;2022-12-07T00:21:12;21.27;;;12.73;;
18387;SDS011;9320;50.256;19.026;2022-12-07T00:23:42;21.57;;;12.20;;
18387;SDS011;9320;50.256;19.026;2022-12-07T00:26:12;21.17;;;12.13;;
18387;SDS011;9320;50.256;19.026;2022-12-07T00:28:45;21.67;;;12.10;;
18387;SDS011;9320;50.256;19.026;2022-12-07T00:31:14;20.30;;;12.17;;
18387;SDS011;9320;50.256;19.026;2022-12-07T00:33:44;21.30;;;12.13;;
18387;SDS011;9320;50.256;19.026;2022-12-07T00:36:12;21.90;;;12.63;;
18387;SDS011;9320;50.256;19.026;2022-12-07T00:38:45;21.10;;;12.10;;
18387;SDS011;9320;50.256;19.026;2022-12-07T00:41:13;20.13;;;11.83;;
18387;SDS011;9320;50.256;19.026;2022-12-07T00:43:42;21.40;;;11.80;;
18387;SDS011;9320;50.256;19.026;2022-12-07T00:46:13;17.53;;;11.47;;
18387;SDS011;9320;50.256;19.026;2022-12-07T00:48:41;20.67;;;11.93;;
18387;SDS011;9320;50.256;19.026;2022-12-07T00:51:10;20.63;;;12.23;;
18387;SDS011;9320;50.256;19.026;2022-12-07T00:53:39;19.70;;;12.27;;
18387;SDS011;9320;50.256;19.026;2022-12-07T00:56:07;21.87;;;12.07;;
18387;SDS011;9320;50.256;19.026;2022-12-07T00:58:36;20.30;;;12.63;;
18387;SDS011;9320;50.256;19.026;2022-12-07T01:01:05;24.20;;;13.90;;
18387;SDS011;9320;50.256;19.026;2022-12-07T01:03:36;21.77;;;13.83;;
18387;SDS011;9320;50.256;19.026;2022-12-07T01:06:05;25.50;;;15.30;;
18387;SDS011;9320;50.256;19.026;2022-12-07T01:08:33;24.73;;;15.00;;
18387;SDS011;9320;50.256;19.026;2022-12-07T01:11:02;28.43;;;16.93;;
18387;SDS011;9320;50.256;19.026;2022-12-07T01:13:32;25.87;;;16.20;;
18387;SDS011;9320;50.256;19.026;2022-12-07T01:16:02;25.13;;;16.33;;
18387;SDS011;9320;50.256;19.026;2022-12-07T01:18:32;28.57;;;17.27;;
18387;SDS011;9320;50.256;19.026;2022-12-07T01:21:10;27.43;;;18.27;;
18387;SDS011;9320;50.256;19.026;2022-12-07T01:23:39;33.77;;;18.70;;
18387;SDS011;9320;50.256;19.026;2022-12-07T01:26:09;29.53;;;18.87;;
18387;SDS011;9320;50.256;19.026;2022-12-07T01:28:39;31.23;;;18.23;;
18387;SDS011;9320;50.256;19.026;2022-12-07T01:31:08;33.00;;;18.00;;
18387;SDS011;9320;50.256;19.026;2022-12-07T01:33:38;32.57;;;18.50;;
18387;SDS011;9320;50.256;19.026;2022-12-07T01:36:12;32.00;;;19.03;;
18387;SDS011;9320;50.256;19.026;2022-12-07T01:38:43;34.43;;;19.17;;
18387;SDS011;9320;50.256;19.026;2022-12-07T01:41:12;34.50;;;19.23;;
18387;SDS011;9320;50.256;19.026;2022-12-07T01:44:07;33.63;;;18.70;;
18387;SDS011;9320;50.256;19.026;2022-12-07T01:46:51;31.50;;;18.57;;
18387;SDS011;9320;50.256;19.026;2022-12-07T01:49:22;36.03;;;20.10;;
18387;SDS011;9320;50.256;19.026;2022-12-07T01:51:57;37.93;;;20.53;;
18387;SDS011;9320;50.256;19.026;2022-12-07T01:54:30;32.77;;;18.63;;
18387;SDS011;9320;50.256;19.026;2022-12-07T01:57:00;36.90;;;19.70;;
18387;SDS011;9320;50.256;19.026;2022-12-07T01:59:28;34.07;;;19.00;;
18387;SDS011;9320;50.256;19.026;2022-12-07T02:01:56;34.17;;;18.97;;
18387;SDS011;9320;50.256;19.026;2022-12-07T02:04:25;37.73;;;20.17;;
18387;SDS011;9320;50.256;19.026;2022-12-07T02:06:53;32.53;;;18.53;;
18387;SDS011;9320;50.256;19.026;2022-12-07T02:09:23;35.43;;;19.57;;
18387;SDS011;9320;50.256;19.026;2022-12-07T02:11:51;35.00;;;19.57;;
18387;SDS011;9320;50.256;19.026;2022-12-07T02:14:20;32.23;;;19.07;;
18387;SDS011;9320;50.256;19.026;2022-12-07T02:16:53;39.53;;;21.00;;
18387;SDS011;9320;50.256;19.026;2022-12-07T02:19:47;35.30;;;20.53;;
18387;SDS011;9320;50.256;19.026;2022-12-07T02:25:57;39.07;;;21.27;;
18387;SDS011;9320;50.256;19.026;2022-12-07T02:28:48;38.20;;;21.10;;
18387;SDS011;9320;50.256;19.026;2022-12-07T02:31:28;38.83;;;21.10;;
18387;SDS011;9320;50.256;19.026;2022-12-07T02:34:00;37.03;;;21.03;;
18387;SDS011;9320;50.256;19.026;2022-12-07T02:36:34;37.37;;;20.60;;
18387;SDS011;9320;50.256;19.026;2022-12-07T02:39:11;33.93;;;20.50;;
18387;SDS011;9320;50.256;19.026;2022-12-07T02:41:46;37.73;;;20.93;;
18387;SDS011;9320;50.256;19.026;2022-12-07T02:44:21;40.10;;;21.70;;
18387;SDS011;9320;50.256;19.026;2022-12-07T02:46:53;40.23;;;22.37;;
18387;SDS011;9320;50.256;19.026;2022-12-07T02:49:23;40.97;;;23.10;;
18387;SDS011;9320;50.256;19.026;2022-12-07T02:51:53;39.80;;;22.77;;
18387;SDS011;9320;50.256;19.026;2022-12-07T02:54:21;42.23;;;24.07;;
18387;SDS011;9320;50.256;19.026;2022-12-07T02:56:50;45.47;;;24.00;;
18387;SDS011;9320;50.256;19.026;2022-12-07T02:59:28;48.33;;;25.33;;
18387;SDS011;9320;50.256;19.026;2022-12-07T03:02:06;41.30;;;23.00;;
18387;SDS011;9320;50.256;19.026;2022-12-07T03:04:45;40.37;;;22.03;;
18387;SDS011;9320;50.256;19.026;2022-12-07T03:07:24;36.73;;;20.80;;
18387;SDS011;9320;50.256;19.026;2022-12-07T03:09:59;42.43;;;21.93;;
18387;SDS011;9320;50.256;19.026;2022-12-07T03:12:32;33.70;;;20.10;;
18387;SDS011;9320;50.256;19.026;2022-12-07T03:15:10;38.07;;;19.93;;
18387;SDS011;9320;50.256;19.026;2022-12-07T03:17:42;35.13;;;20.77;;
18387;SDS011;9320;50.256;19.026;2022-12-07T03:20:14;33.20;;;19.60;;
18387;SDS011;9320;50.256;19.026;2022-12-07T03:22:46;37.43;;;20.57;;
18387;SDS011;9320;50.256;19.026;2022-12-07T03:25:15;36.37;;;20.90;;
18387;SDS011;9320;50.256;19.026;2022-12-07T03:27:45;36.07;;;20.43;;
18387;SDS011;9320;50.256;19.026;2022-12-07T03:30:20;36.97;;;21.07;;
18387;SDS011;9320;50.256;19.026;2022-12-07T03:32:50;39.27;;;21.97;;
18387;SDS011;9320;50.256;19.026;2022-12-07T03:35:25;41.33;;;23.00;;
18387;SDS011;9320;50.256;19.026;2022-12-07T03:37:57;44.30;;;23.63;;
18387;SDS011;9320;50.256;19.026;2022-12-07T03:40:28;39.20;;;23.83;;
18387;SDS011;9320;50.256;19.026;2022-12-07T03:43:00;41.23;;;23.70;;
18387;SDS011;9320;50.256;19.026;2022-12-07T03:45:33;40.77;;;24.23;;
18387;SDS011;9320;50.256;19.026;2022-12-07T03:48:07;45.13;;;24.00;;
18387;SDS011;9320;50.256;19.026;2022-12-07T03:50:42;43.00;;;24.50;;
18387;SDS011;9320;50.256;19.026;2022-12-07T03:53:18;41.67;;;23.47;;
18387;SDS011;9320;50.256;19.026;2022-12-07T03:55:49;43.23;;;23.80;;
18387;SDS011;9320;50.256;19.026;2022-12-07T03:58:20;47.53;;;24.27;;
18387;SDS011;9320;50.256;19.026;2022-12-07T04:00:51;43.17;;;23.73;;
18387;SDS011;9320;50.256;19.026;2022-12-07T04:03:19;46.27;;;24.27;;
18387;SDS011;9320;50.256;19.026;2022-12-07T04:05:47;50.10;;;24.83;;
18387;SDS011;9320;50.256;19.026;2022-12-07T04:08:16;51.97;;;25.30;;
18387;SDS011;9320;50.256;19.026;2022-12-07T04:10:44;52.87;;;26.67;;
18387;SDS011;9320;50.256;19.026;2022-12-07T04:13:12;51.80;;;26.17;;
18387;SDS011;9320;50.256;19.026;2022-12-07T04:15:40;56.37;;;26.40;;
18387;SDS011;9320;50.256;19.026;2022-12-07T04:18:09;47.90;;;25.67;;
18387;SDS011;9320;50.256;19.026;2022-12-07T04:20:37;52.67;;;26.83;;
18387;SDS011;9320;50.256;19.026;2022-12-07T04:23:05;53.07;;;25.77;;
18387;SDS011;9320;50.256;19.026;2022-12-07T04:25:33;46.27;;;24.17;;
18387;SDS011;9320;50.256;19.026;2022-12-07T04:28:01;48.03;;;24.57;;
18387;SDS011;9320;50.256;19.026;2022-12-07T04:30:29;45.47;;;23.07;;
18387;SDS011;9320;50.256;19.026;2022-12-07T04:32:57;48.50;;;22.33;;
18387;SDS011;9320;50.256;19.026;2022-12-07T04:35:27;43.23;;;22.37;;
18387;SDS011;9320;50.256;19.026;2022-12-07T04:37:55;40.20;;;21.23;;
18387;SDS011;9320;50.256;19.026;2022-12-07T04:40:23;36.50;;;20.30;;
18387;SDS011;9320;50.256;19.026;2022-12-07T04:42:51;37.53;;;20.27;;
18387;SDS011;9320;50.256;19.026;2022-12-07T04:45:19;40.13;;;20.60;;
18387;SDS011;9320;50.256;19.026;2022-12-07T04:47:47;42.87;;;20.73;;
18387;SDS011;9320;50.256;19.026;2022-12-07T04:50:15;39.00;;;21.17;;
18387;SDS011;9320;50.256;19.026;2022-12-07T04:52:44;40.30;;;20.87;;
18387;SDS011;9320;50.256;19.026;2022-12-07T04:55:12;38.23;;;20.20;;
18387;SDS011;9320;50.256;19.026;2022-12-07T04:57:40;39.13;;;21.73;;
18387;SDS011;9320;50.256;19.026;2022-12-07T05:00:08;36.70;;;20.10;;
18387;SDS011;9320;50.256;19.026;2022-12-07T05:02:37;37.67;;;19.60;;
18387;SDS011;9320;50.256;19.026;2022-12-07T05:05:05;34.03;;;18.30;;
18387;SDS011;9320;50.256;19.026;2022-12-07T05:07:34;33.43;;;17.57;;
18387;SDS011;9320;50.256;19.026;2022-12-07T05:10:04;32.60;;;17.90;;
18387;SDS011;9320;50.256;19.026;2022-12-07T05:12:33;28.93;;;16.87;;
18387;SDS011;9320;50.256;19.026;2022-12-07T05:15:01;33.00;;;17.27;;
18387;SDS011;9320;50.256;19.026;2022-12-07T05:17:29;34.63;;;17.50;;
18387;SDS011;9320;50.256;19.026;2022-12-07T05:19:57;31.03;;;16.57;;
18387;SDS011;9320;50.256;19.026;2022-12-07T05:22:26;30.07;;;17.17;;
18387;SDS011;9320;50.256;19.026;2022-12-07T05:24:54;31.47;;;16.90;;
18387;SDS011;9320;50.256;19.026;2022-12-07T05:27:23;27.30;;;16.30;;
18387;SDS011;9320;50.256;19.026;2022-12-07T05:29:51;26.83;;;16.50;;
18387;SDS011;9320;50.256;19.026;2022-12-07T05:32:20;27.07;;;17.23;;
18387;SDS011;9320;50.256;19.026;2022-12-07T05:34:48;27.30;;;17.23;;
18387;SDS011;9320;50.256;19.026;2022-12-07T05:37:16;27.83;;;16.83;;
18387;SDS011;9320;50.256;19.026;2022-12-07T05:39:44;26.80;;;16.57;;
18387;SDS011;9320;50.256;19.026;2022-12-07T05:42:12;31.87;;;18.07;;
18387;SDS011;9320;50.256;19.026;2022-12-07T05:44:41;29.97;;;18.53;;
18387;SDS011;9320;50.256;19.026;2022-12-07T05:47:10;28.50;;;16.83;;
18387;SDS011;9320;50.256;19.026;2022-12-07T05:49:39;28.63;;;16.80;;
18387;SDS011;9320;50.256;19.026;2022-12-07T05:52:07;28.40;;;16.90;;
18387;SDS011;9320;50.256;19.026;2022-12-07T05:54:35;35.23;;;18.50;;
18387;SDS011;9320;50.256;19.026;2022-12-07T05:57:03;30.63;;;19.57;;
18387;SDS011;9320;50.256;19.026;2022-12-07T05:59:31;37.80;;;20.63;;
18387;SDS011;9320;50.256;19.026;2022-12-07T06:02:00;37.33;;;21.30;;
18387;SDS011;9320;50.256;19.026;2022-12-07T06:04:30;38.73;;;21.03;;
18387;SDS011;9320;50.256;19.026;2022-12-07T06:07:00;36.37;;;20.13;;
18387;SDS011;9320;50.256;19.026;2022-12-07T06:09:28;35.53;;;19.50;;
18387;SDS011;9320;50.256;19.026;2022-12-07T06:11:56;35.90;;;20.13;;
18387;SDS011;9320;50.256;19.026;2022-12-07T06:14:43;38.83;;;21.00;;
18387;SDS011;9320;50.256;19.026;2022-12-07T06:17:13;38.63;;;22.03;;
18387;SDS011;9320;50.256;19.026;2022-12-07T06:19:42;41.27;;;21.07;;
18387;SDS011;9320;50.256;19.026;2022-12-07T06:22:10;37.90;;;20.47;;
18387;SDS011;9320;50.256;19.026;2022-12-07T06:24:39;39.77;;;20.30;;
18387;SDS011;9320;50.256;19.026;2022-12-07T06:27:07;33.27;;;19.20;;
18387;SDS011;9320;50.256;19.026;2022-12-07T06:29:36;36.13;;;19.30;;
18387;SDS011;9320;50.256;19.026;2022-12-07T06:32:04;29.27;;;17.23;;
18387;SDS011;9320;50.256;19.026;2022-12-07T06:34:34;31.10;;;18.47;;
18387;SDS011;9320;50.256;19.026;2022-12-07T06:37:03;30.20;;;17.47;;
18387;SDS011;9320;50.256;19.026;2022-12-07T06:39:31;29.57;;;16.43;;
18387;SDS011;9320;50.256;19.026;2022-12-07T06:42:00;28.33;;;16.17;;
18387;SDS011;9320;50.256;19.026;2022-12-07T06:44:28;27.53;;;16.17;;
18387;SDS011;9320;50.256;19.026;2022-12-07T06:46:56;27.93;;;15.90;;
18387;SDS011;9320;50.256;19.026;2022-12-07T06:49:45;25.67;;;15.03;;
18387;SDS011;9320;50.256;19.026;2022-12-07T06:52:13;28.90;;;16.70;;
18387;SDS011;9320;50.256;19.026;2022-12-07T06:54:41;27.80;;;16.37;;
18387;SDS011;9320;50.256;19.026;2022-12-07T06:57:09;28.40;;;16.43;;
18387;SDS011;9320;50.256;19.026;2022-12-07T06:59:37;30.57;;;16.13;;
18387;SDS011;9320;50.256;19.026;2022-12-07T07:02:05;29.07;;;16.80;;
18387;SDS011;9320;50.256;19.026;2022-12-07T07:04:33;27.27;;;15.77;;
18387;SDS011;9320;50.256;19.026;2022-12-07T07:07:03;26.03;;;15.57;;
18387;SDS011;9320;50.256;19.026;2022-12-07T07:09:31;25.67;;;16.53;;
18387;SDS011;9320;50.256;19.026;2022-12-07T07:11:59;27.20;;;16.13;;
18387;SDS011;9320;50.256;19.026;2022-12-07T07:14:27;22.00;;;14.60;;
18387;SDS011;9320;50.256;19.026;2022-12-07T07:16:55;26.47;;;16.03;;
18387;SDS011;9320;50.256;19.026;2022-12-07T07:19:23;27.37;;;16.37;;
18387;SDS011;9320;50.256;19.026;2022-12-07T07:21:51;25.33;;;15.57;;
18387;SDS011;9320;50.256;19.026;2022-12-07T07:24:20;27.33;;;16.57;;
18387;SDS011;9320;50.256;19.026;2022-12-07T07:26:48;30.80;;;16.60;;
18387;SDS011;9320;50.256;19.026;2022-12-07T07:29:16;27.40;;;16.40;;
18387;SDS011;9320;50.256;19.026;2022-12-07T07:31:44;26.30;;;15.53;;
18387;SDS011;9320;50.256;19.026;2022-12-07T07:34:12;22.37;;;14.37;;
18387;SDS011;9320;50.256;19.026;2022-12-07T07:36:40;27.43;;;15.23;;
18387;SDS011;9320;50.256;19.026;2022-12-07T07:39:09;25.03;;;16.27;;
18387;SDS011;9320;50.256;19.026;2022-12-07T07:41:40;23.93;;;15.50;;
18387;SDS011;9320;50.256;19.026;2022-12-07T07:44:08;26.20;;;15.90;;
18387;SDS011;9320;50.256;19.026;2022-12-07T07:46:37;25.57;;;15.83;;
18387;SDS011;9320;50.256;19.026;2022-12-07T07:49:05;25.80;;;16.00;;
18387;SDS011;9320;50.256;19.026;2022-12-07T07:51:33;25.67;;;16.53;;
18387;SDS011;9320;50.256;19.026;2022-12-07T07:54:00;27.10;;;16.80;;
18387;SDS011;9320;50.256;19.026;2022-12-07T07:56:29;28.87;;;16.33;;
18387;SDS011;9320;50.256;19.026;2022-12-07T07:58:58;27.63;;;17.33;;
18387;SDS011;9320;50.256;19.026;2022-12-07T08:01:26;27.87;;;18.10;;
18387;SDS011;9320;50.256;19.026;2022-12-07T08:03:54;30.70;;;18.47;;
18387;SDS011;9320;50.256;19.026;2022-12-07T08:06:22;29.80;;;18.40;;
18387;SDS011;9320;50.256;19.026;2022-12-07T08:08:57;31.17;;;18.63;;
18387;SDS011;9320;50.256;19.026;2022-12-07T08:11:25;32.53;;;20.83;;
18387;SDS011;9320;50.256;19.026;2022-12-07T08:13:53;30.57;;;18.03;;
18387;SDS011;9320;50.256;19.026;2022-12-07T08:16:22;26.47;;;17.50;;
18387;SDS011;9320;50.256;19.026;2022-12-07T08:18:50;30.20;;;18.17;;
18387;SDS011;9320;50.256;19.026;2022-12-07T08:21:18;29.20;;;17.60;;
18387;SDS011;9320;50.256;19.026;2022-12-07T08:23:47;32.30;;;19.50;;
18387;SDS011;9320;50.256;19.026;2022-12-07T08:26:15;31.93;;;20.33;;
18387;SDS011;9320;50.256;19.026;2022-12-07T08:28:43;30.77;;;17.10;;
18387;SDS011;9320;50.256;19.026;2022-12-07T08:31:12;28.07;;;15.87;;
18387;SDS011;9320;50.256;19.026;2022-12-07T08:33:44;31.40;;;18.03;;
18387;SDS011;9320;50.256;19.026;2022-12-07T08:36:13;28.47;;;16.27;;
18387;SDS011;9320;50.256;19.026;2022-12-07T08:38:41;29.43;;;17.80;;
18387;SDS011;9320;50.256;19.026;2022-12-07T08:41:30;35.97;;;20.00;;
18387;SDS011;9320;50.256;19.026;2022-12-07T08:43:58;37.50;;;20.67;;
18387;SDS011;9320;50.256;19.026;2022-12-07T08:46:28;34.27;;;21.03;;
18387;SDS011;9320;50.256;19.026;2022-12-07T08:49:03;33.67;;;20.37;;
18387;SDS011;9320;50.256;19.026;2022-12-07T08:51:34;34.07;;;19.70;;
18387;SDS011;9320;50.256;19.026;2022-12-07T08:54:04;32.50;;;20.47;;
18387;SDS011;9320;50.256;19.026;2022-12-07T08:56:35;34.20;;;20.20;;
18387;SDS011;9320;50.256;19.026;2022-12-07T08:59:03;28.80;;;18.67;;
18387;SDS011;9320;50.256;19.026;2022-12-07T09:01:33;31.53;;;18.83;;
18387;SDS011;9320;50.256;19.026;2022-12-07T09:04:03;31.30;;;19.33;;
18387;SDS011;9320;50.256;19.026;2022-12-07T09:06:31;32.63;;;18.40;;
18387;SDS011;9320;50.256;19.026;2022-12-07T09:08:59;31.43;;;20.47;;
18387;SDS011;9320;50.256;19.026;2022-12-07T09:11:29;31.50;;;20.40;;
18387;SDS011;9320;50.256;19.026;2022-12-07T09:13:57;34.53;;;20.27;;
18387;SDS011;9320;50.256;19.026;2022-12-07T09:16:25;31.37;;;21.30;;
18387;SDS011;9320;50.256;19.026;2022-12-07T09:18:53;32.07;;;19.87;;
18387;SDS011;9320;50.256;19.026;2022-12-07T09:21:23;29.80;;;19.77;;
18387;SDS011;9320;50.256;19.026;2022-12-07T09:23:51;30.27;;;19.30;;
18387;SDS011;9320;50.256;19.026;2022-12-07T09:26:19;27.33;;;17.27;;
18387;SDS011;9320;50.256;19.026;2022-12-07T09:28:47;30.33;;;18.67;;
18387;SDS011;9320;50.256;19.026;2022-12-07T09:31:15;28.90;;;18.30;;
18387;SDS011;9320;50.256;19.026;2022-12-07T09:33:54;26.13;;;17.00;;
18387;SDS011;9320;50.256;19.026;2022-12-07T09:36:24;29.03;;;16.23;;
18387;SDS011;9320;50.256;19.026;2022-12-07T09:38:53;26.67;;;15.90;;
18387;SDS011;9320;50.256;19.026;2022-12-07T09:41:21;26.00;;;15.20;;
18387;SDS011;9320;50.256;19.026;2022-12-07T09:43:51;26.00;;;15.27;;
18387;SDS011;9320;50.256;19.026;2022-12-07T09:46:20;24.80;;;15.70;;
18387;SDS011;9320;50.256;19.026;2022-12-07T09:48:48;25.83;;;16.17;;
18387;SDS011;9320;50.256;19.026;2022-12-07T09:51:18;26.53;;;16.23;;
18387;SDS011;9320;50.256;19.026;2022-12-07T09:53:52;25.90;;;16.57;;
18387;SDS011;9320;50.256;19.026;2022-12-07T09:56:22;27.90;;;16.97;;
18387;SDS011;9320;50.256;19.026;2022-12-07T09:58:51;27.90;;;16.90;;
18387;SDS011;9320;50.256;19.026;2022-12-07T10:01:27;28.27;;;16.50;;
18387;SDS011;9320;50.256;19.026;2022-12-07T10:04:00;26.93;;;17.07;;
18387;SDS011;9320;50.256;19.026;2022-12-07T10:06:36;30.50;;;18.67;;
18387;SDS011;9320;50.256;19.026;2022-12-07T10:09:09;32.93;;;19.03;;
18387;SDS011;9320;50.256;19.026;2022-12-07T10:14:27;33.10;;;19.17;;
18387;SDS011;9320;50.256;19.026;2022-12-07T10:17:32;33.60;;;19.17;;
18387;SDS011;9320;50.256;19.026;2022-12-07T10:20:16;24.77;;;17.07;;
18387;SDS011;9320;50.256;19.026;2022-12-07T10:22:55;31.17;;;18.00;;
18387;SDS011;9320;50.256;19.026;2022-12-07T10:25:30;29.03;;;16.43;;
18387;SDS011;9320;50.256;19.026;2022-12-07T10:28:00;27.63;;;16.33;;
18387;SDS011;9320;50.256;19.026;2022-12-07T10:30:49;26.57;;;14.67;;
18387;SDS011;9320;50.256;19.026;2022-12-07T10:33:30;23.53;;;15.17;;
18387;SDS011;9320;50.256;19.026;2022-12-07T10:36:00;20.77;;;13.73;;
18387;SDS011;9320;50.256;19.026;2022-12-07T10:38:44;25.73;;;15.20;;
18387;SDS011;9320;50.256;19.026;2022-12-07T10:41:14;23.93;;;14.50;;
18387;SDS011;9320;50.256;19.026;2022-12-07T10:43:46;20.83;;;13.77;;
18387;SDS011;9320;50.256;19.026;2022-12-07T10:49:17;21.77;;;13.33;;
18387;SDS011;9320;50.256;19.026;2022-12-07T10:52:11;20.53;;;13.10;;
18387;SDS011;9320;50.256;19.026;2022-12-07T10:54:49;20.20;;;12.27;;
18387;SDS011;9320;50.256;19.026;2022-12-07T10:57:34;19.67;;;12.77;;
18387;SDS011;9320;50.256;19.026;2022-12-07T11:00:13;17.90;;;12.47;;
18387;SDS011;9320;50.256;19.026;2022-12-07T11:02:58;18.50;;;12.40;;
18387;SDS011;9320;50.256;19.026;2022-12-07T11:05:45;19.10;;;12.67;;
18387;SDS011;9320;50.256;19.026;2022-12-07T11:08:21;19.37;;;13.10;;
18387;SDS011;9320;50.256;19.026;2022-12-07T11:10:59;19.43;;;12.43;;
18387;SDS011;9320;50.256;19.026;2022-12-07T11:13:37;20.17;;;13.23;;
18387;SDS011;9320;50.256;19.026;2022-12-07T11:16:19;20.87;;;14.07;;
18387;SDS011;9320;50.256;19.026;2022-12-07T11:19:06;21.90;;;15.27;;
18387;SDS011;9320;50.256;19.026;2022-12-07T11:21:55;20.33;;;15.10;;
18387;SDS011;9320;50.256;19.026;2022-12-07T11:24:26;28.13;;;17.33;;
18387;SDS011;9320;50.256;19.026;2022-12-07T11:27:03;30.40;;;19.67;;
18387;SDS011;9320;50.256;19.026;2022-12-07T11:32:40;30.97;;;19.10;;
18387;SDS011;9320;50.256;19.026;2022-12-07T11:35:21;26.53;;;17.10;;
18387;SDS011;9320;50.256;19.026;2022-12-07T11:37:55;22.87;;;16.43;;
18387;SDS011;9320;50.256;19.026;2022-12-07T11:40:28;22.00;;;15.10;;
18387;SDS011;9320;50.256;19.026;2022-12-07T11:43:02;23.03;;;15.83;;
18387;SDS011;9320;50.256;19.026;2022-12-07T11:45:37;21.30;;;15.13;;
18387;SDS011;9320;50.256;19.026;2022-12-07T11:48:10;19.67;;;12.47;;
18387;SDS011;9320;50.256;19.026;2022-12-07T11:50:43;19.43;;;13.23;;
18387;SDS011;9320;50.256;19.026;2022-12-07T11:53:14;14.70;;;11.03;;
18387;SDS011;9320;50.256;19.026;2022-12-07T11:55:47;18.00;;;11.77;;
18387;SDS011;9320;50.256;19.026;2022-12-07T11:58:22;18.13;;;13.17;;
18387;SDS011;9320;50.256;19.026;2022-12-07T12:01:09;20.37;;;13.63;;
18387;SDS011;9320;50.256;19.026;2022-12-07T12:03:44;24.47;;;14.10;;
18387;SDS011;9320;50.256;19.026;2022-12-07T12:06:18;23.07;;;13.77;;
18387;SDS011;9320;50.256;19.026;2022-12-07T12:08:48;20.97;;;13.27;;
18387;SDS011;9320;50.256;19.026;2022-12-07T12:11:47;20.77;;;12.73;;
18387;SDS011;9320;50.256;19.026;2022-12-07T12:14:52;18.30;;;11.60;;
18387;SDS011;9320;50.256;19.026;2022-12-07T12:17:41;18.93;;;14.00;;
18387;SDS011;9320;50.256;19.026;2022-12-07T12:20:19;22.60;;;14.83;;
18387;SDS011;9320;50.256;19.026;2022-12-07T12:22:51;21.30;;;13.10;;
18387;SDS011;9320;50.256;19.026;2022-12-07T12:25:23;21.90;;;13.93;;
18387;SDS011;9320;50.256;19.026;2022-12-07T12:27:55;21.13;;;14.50;;
18387;SDS011;9320;50.256;19.026;2022-12-07T12:30:30;21.03;;;13.77;;
18387;SDS011;9320;50.256;19.026;2022-12-07T12:33:04;22.30;;;13.67;;
18387;SDS011;9320;50.256;19.026;2022-12-07T12:35:39;23.80;;;14.70;;
18387;SDS011;9320;50.256;19.026;2022-12-07T12:40:59;22.27;;;13.07;;
18387;SDS011;9320;50.256;19.026;2022-12-07T12:43:41;19.13;;;13.37;;
18387;SDS011;9320;50.256;19.026;2022-12-07T12:46:37;23.07;;;14.83;;
18387;SDS011;9320;50.256;19.026;2022-12-07T12:49:34;26.23;;;15.47;;
18387;SDS011;9320;50.256;19.026;2022-12-07T12:55:17;15.03;;;11.47;;
18387;SDS011;9320;50.256;19.026;2022-12-07T12:57:53;17.03;;;11.93;;
18387;SDS011;9320;50.256;19.026;2022-12-07T13:10:24;19.03;;;11.93;;
18387;SDS011;9320;50.256;19.026;2022-12-07T13:13:04;17.47;;;11.50;;
18387;SDS011;9320;50.256;19.026;2022-12-07T13:15:54;19.63;;;12.30;;
18387;SDS011;9320;50.256;19.026;2022-12-07T13:18:42;19.97;;;13.80;;
18387;SDS011;9320;50.256;19.026;2022-12-07T13:24:09;21.67;;;13.80;;
18387;SDS011;9320;50.256;19.026;2022-12-07T13:26:41;23.80;;;14.60;;
18387;SDS011;9320;50.256;19.026;2022-12-07T13:29:11;21.57;;;14.83;;
18387;SDS011;9320;50.256;19.026;2022-12-07T13:31:42;21.23;;;13.30;;
18387;SDS011;9320;50.256;19.026;2022-12-07T13:34:29;18.57;;;12.47;;
18387;SDS011;9320;50.256;19.026;2022-12-07T13:36:59;21.73;;;12.30;;
18387;SDS011;9320;50.256;19.026;2022-12-07T13:39:28;16.27;;;11.60;;
18387;SDS011;9320;50.256;19.026;2022-12-07T13:41:57;16.47;;;11.73;;
18387;SDS011;9320;50.256;19.026;2022-12-07T13:44:28;18.47;;;12.63;;
18387;SDS011;9320;50.256;19.026;2022-12-07T13:47:12;14.47;;;10.87;;
18387;SDS011;9320;50.256;19.026;2022-12-07T13:49:46;17.70;;;12.23;;
18387;SDS011;9320;50.256;19.026;2022-12-07T13:52:20;19.80;;;13.17;;
18387;SDS011;9320;50.256;19.026;2022-12-07T13:54:54;18.63;;;13.13;;
18387;SDS011;9320;50.256;19.026;2022-12-07T13:57:24;21.47;;;12.40;;
18387;SDS011;9320;50.256;19.026;2022-12-07T13:59:53;18.20;;;12.03;;
18387;SDS011;9320;50.256;19.026;2022-12-07T14:02:24;20.30;;;11.83;;
18387;SDS011;9320;50.256;19.026;2022-12-07T14:05:07;18.47;;;11.57;;
18387;SDS011;9320;50.256;19.026;2022-12-07T14:07:44;16.83;;;10.90;;
18387;SDS011;9320;50.256;19.026;2022-12-07T14:10:23;19.97;;;11.43;;
18387;SDS011;9320;50.256;19.026;2022-12-07T14:12:53;17.43;;;11.17;;
18387;SDS011;9320;50.256;19.026;2022-12-07T14:15:22;21.77;;;12.53;;
18387;SDS011;9320;50.256;19.026;2022-12-07T14:17:54;19.17;;;13.17;;
18387;SDS011;9320;50.256;19.026;2022-12-07T14:20:29;20.53;;;13.50;;
18387;SDS011;9320;50.256;19.026;2022-12-07T14:22:58;20.37;;;13.50;;
18387;SDS011;9320;50.256;19.026;2022-12-07T14:25:44;21.50;;;14.47;;
18387;SDS011;9320;50.256;19.026;2022-12-07T14:28:25;22.10;;;14.03;;
18387;SDS011;9320;50.256;19.026;2022-12-07T14:30:54;23.47;;;15.30;;
18387;SDS011;9320;50.256;19.026;2022-12-07T14:33:24;24.17;;;15.33;;
18387;SDS011;9320;50.256;19.026;2022-12-07T14:35:52;22.50;;;13.67;;
18387;SDS011;9320;50.256;19.026;2022-12-07T14:38:21;21.67;;;13.80;;
18387;SDS011;9320;50.256;19.026;2022-12-07T14:40:50;24.33;;;15.77;;
18387;SDS011;9320;50.256;19.026;2022-12-07T14:43:19;23.70;;;15.50;;
18387;SDS011;9320;50.256;19.026;2022-12-07T14:45:47;24.30;;;14.77;;
18387;SDS011;9320;50.256;19.026;2022-12-07T14:48:16;31.97;;;17.03;;
18387;SDS011;9320;50.256;19.026;2022-12-07T14:51:05;29.43;;;16.00;;
18387;SDS011;9320;50.256;19.026;2022-12-07T14:53:55;28.10;;;17.60;;
18387;SDS011;9320;50.256;19.026;2022-12-07T14:56:24;35.63;;;17.90;;
18387;SDS011;9320;50.256;19.026;2022-12-07T14:58:53;34.00;;;17.77;;
18387;SDS011;9320;50.256;19.026;2022-12-07T15:01:21;30.57;;;17.30;;
18387;SDS011;9320;50.256;19.026;2022-12-07T15:03:49;31.03;;;17.40;;
18387;SDS011;9320;50.256;19.026;2022-12-07T15:06:19;25.63;;;15.20;;
18387;SDS011;9320;50.256;19.026;2022-12-07T15:08:47;26.17;;;15.37;;
18387;SDS011;9320;50.256;19.026;2022-12-07T15:11:15;26.07;;;15.17;;
18387;SDS011;9320;50.256;19.026;2022-12-07T15:13:44;29.37;;;15.63;;
18387;SDS011;9320;50.256;19.026;2022-12-07T15:16:30;27.33;;;14.93;;
18387;SDS011;9320;50.256;19.026;2022-12-07T15:19:18;31.43;;;15.47;;
18387;SDS011;9320;50.256;19.026;2022-12-07T15:21:56;28.07;;;14.93;;